Aviation Digital Data Service (ADDS)

Output produced by METARs form (2252 UTC 31 October 2014)
found at http://aviationweather.gov/adds/metars/
 
KGFL 311732Z 3118/0118 07005KT P6SM SKC 
     FM010100 01004KT P6SM OVC040 
     FM011400 01007KT P6SM OVC040